Time;durP1;ratioP1;P1;durP2;ratioP2;P2;SDS_P1;SDS_P2;PMS_P1;PMS_P2;Temp;Humidity;BMP_temperature;BMP_pressure;BME280_temperature;BME280_humidity;BME280_pressure;Samples;Min_cycle;Max_cycle;Signal;HPM_P1;HPM_P2
2022/08/26 00:00:37;;;;;;;5.07;2.50;;;;;;;25.86;53.60;101448.44;4973768;28;20027;-77
2022/08/26 00:03:03;;;;;;;5.25;2.55;;;;;;;25.84;53.79;101445.09;4972799;28;20264;-76
2022/08/26 00:05:28;;;;;;;5.18;2.50;;;;;;;25.82;53.81;101444.41;4975962;28;20778;-77
2022/08/26 00:07:54;;;;;;;6.35;2.75;;;;;;;25.80;53.53;101447.25;4979439;28;20043;-77
2022/08/26 00:10:20;;;;;;;5.47;2.67;;;;;;;25.81;53.78;101450.75;4979964;28;20443;-77
2022/08/26 00:12:46;;;;;;;5.97;2.45;;;;;;;25.81;53.44;101448.91;4980062;28;20088;-77
2022/08/26 00:15:13;;;;;;;5.50;2.70;;;;;;;25.80;53.65;101451.75;4977897;28;20101;-79
2022/08/26 00:17:39;;;;;;;5.65;2.50;;;;;;;25.78;53.67;101456.41;4972321;28;20054;-77
2022/08/26 00:20:06;;;;;;;5.38;2.65;;;;;;;25.79;53.71;101452.75;4973531;28;20491;-74
2022/08/26 00:22:32;;;;;;;5.80;2.70;;;;;;;25.73;53.77;101448.88;4973573;28;20057;-77
2022/08/26 00:24:57;;;;;;;5.28;2.90;;;;;;;25.75;53.53;101448.72;4971559;28;20467;-78
2022/08/26 00:27:22;;;;;;;5.97;3.08;;;;;;;25.74;53.77;101449.72;4973882;28;20120;-77
2022/08/26 00:29:50;;;;;;;5.95;2.70;;;;;;;25.64;53.48;101437.34;4975738;28;20047;-77
2022/08/26 00:32:15;;;;;;;4.75;2.38;;;;;;;25.74;53.62;101453.25;4972598;28;20462;-76
2022/08/26 00:34:41;;;;;;;6.07;2.53;;;;;;;25.75;53.77;101454.06;4971583;28;20117;-77
2022/08/26 00:37:06;;;;;;;5.22;2.60;;;;;;;25.73;53.95;101456.06;4973966;28;20030;-76
2022/08/26 00:39:31;;;;;;;7.70;2.83;;;;;;;25.73;53.45;101462.25;4973574;28;20114;-75
2022/08/26 00:41:57;;;;;;;5.22;2.60;;;;;;;25.74;53.71;101466.59;4972230;28;20043;-77
2022/08/26 00:44:22;;;;;;;4.33;2.40;;;;;;;25.73;53.64;101459.56;4973383;28;20368;-76
2022/08/26 00:46:52;;;;;;;4.32;2.45;;;;;;;25.75;53.64;101462.06;4976434;28;20288;-76
2022/08/26 00:49:36;;;;;;;7.63;2.70;;;;;;;25.74;53.73;101447.91;4972949;28;20463;-78
2022/08/26 00:52:04;;;;;;;;;;;;;;;25.75;53.51;101448.72;4974125;28;20100;-76
2022/08/26 00:54:34;;;;;;;6.70;2.60;;;;;;;25.71;53.52;101448.22;4971976;28;19981;-77
2022/08/26 00:57:12;;;;;;;5.45;2.40;;;;;;;25.72;53.49;101452.53;4972593;28;20045;-78
2022/08/26 00:59:38;;;;;;;5.78;2.55;;;;;;;25.70;53.60;101451.88;4972357;28;20665;-78
2022/08/26 01:02:04;;;;;;;6.22;2.28;;;;;;;25.69;53.46;101458.19;4973324;28;20034;-76
2022/08/26 01:04:32;;;;;;;5.38;2.60;;;;;;;25.67;53.71;101454.88;4973236;28;20387;-80
2022/08/26 01:06:58;;;;;;;4.70;2.30;;;;;;;25.69;53.71;101464.41;4971917;28;20117;-78
2022/08/26 01:09:24;;;;;;;4.40;2.10;;;;;;;25.68;53.55;101461.88;4975544;28;20034;-76
2022/08/26 01:11:53;;;;;;;5.40;2.38;;;;;;;25.70;53.49;101468.72;4973888;28;20046;-76
2022/08/26 01:14:21;;;;;;;6.22;2.60;;;;;;;25.67;53.61;101463.69;4952727;28;20045;-77
2022/08/26 01:16:48;;;;;;;6.20;2.40;;;;;;;25.66;53.37;101459.38;4972660;28;20050;-79
2022/08/26 01:19:42;;;;;;;5.80;2.25;;;;;;;25.70;53.51;101462.56;4972624;28;20490;-77
2022/08/26 01:22:16;;;;;;;5.28;2.53;;;;;;;25.69;53.44;101458.19;4966891;28;20046;-75
2022/08/26 01:24:42;;;;;;;5.78;2.40;;;;;;;25.70;53.27;101457.22;4974905;28;20039;-77
2022/08/26 01:27:12;;;;;;;4.50;2.20;;;;;;;25.63;53.39;101449.03;4971106;28;20055;-76
2022/08/26 01:29:41;;;;;;;6.35;2.53;;;;;;;25.62;53.14;101447.34;4972756;28;20069;-75
2022/08/26 01:32:10;;;;;;;4.82;2.15;;;;;;;25.64;53.48;101448.03;4977560;28;20058;-76
2022/08/26 01:34:37;;;;;;;6.10;2.38;;;;;;;25.63;53.63;101450.88;4978873;28;20038;-77
2022/08/26 01:37:11;;;;;;;7.13;2.50;;;;;;;25.66;53.58;101453.19;4957530;28;20086;-78
2022/08/26 01:39:38;;;;;;;5.22;2.13;;;;;;;25.65;53.53;101447.03;4976622;28;20058;-76
2022/08/26 01:42:08;;;;;;;5.32;2.25;;;;;;;25.64;53.60;101461.38;4976711;28;20077;-76
2022/08/26 01:44:46;;;;;;;5.80;2.42;;;;;;;25.67;53.34;101458.34;4973500;28;20034;-76
2022/08/26 01:47:17;;;;;;;4.30;2.10;;;;;;;25.60;53.80;101453.84;4987555;28;20058;-77
2022/08/26 01:49:47;;;;;;;4.63;2.20;;;;;;;25.64;53.50;101456.03;4972482;28;20077;-77
2022/08/26 01:52:19;;;;;;;5.28;2.20;;;;;;;25.63;53.50;101457.03;4971024;28;20034;-76
2022/08/26 01:54:45;;;;;;;4.65;2.13;;;;;;;25.61;53.21;101456.38;4972460;28;20030;-77
2022/08/26 01:57:12;;;;;;;4.82;2.17;;;;;;;25.66;53.37;101462.03;4977832;28;20096;-76
2022/08/26 01:59:37;;;;;;;5.45;2.03;;;;;;;25.56;53.37;101447.16;4979395;28;20110;-76
2022/08/26 02:02:02;;;;;;;4.75;2.10;;;;;;;25.62;53.45;101463.34;4977610;28;20039;-75
2022/08/26 02:04:34;;;;;;;4.95;1.90;;;;;;;25.57;53.59;101454.16;4977227;28;20081;-77
2022/08/26 02:07:04;;;;;;;4.85;2.70;;;;;;;25.60;53.27;101460.00;4975390;28;20081;-78
2022/08/26 02:09:30;;;;;;;4.38;1.77;;;;;;;25.57;53.48;101460.34;4974521;28;20483;-75
2022/08/26 02:11:55;;;;;;;6.88;2.22;;;;;;;25.60;53.21;101467.19;4991889;28;20038;-79
2022/08/26 02:14:25;;;;;;;4.88;2.28;;;;;;;25.61;53.38;101468.84;4977552;28;20097;-77
2022/08/26 02:16:52;;;;;;;5.40;2.13;;;;;;;25.59;53.58;101466.34;4976324;28;20066;-79
2022/08/26 02:19:21;;;;;;;4.68;2.00;;;;;;;25.59;53.26;101466.34;4974264;28;20085;-78
2022/08/26 02:21:48;;;;;;;4.85;2.00;;;;;;;25.61;53.44;101472.38;4977404;28;20026;-77
2022/08/26 02:24:17;;;;;;;5.63;2.13;;;;;;;25.60;53.50;101478.69;4976863;28;20038;-77
2022/08/26 02:26:44;;;;;;;3.85;1.70;;;;;;;25.53;53.11;101466.97;4976975;28;20050;-77
2022/08/26 02:29:27;;;;;;;5.18;2.10;;;;;;;25.61;53.07;101484.84;4979722;28;20057;-75
2022/08/26 02:31:54;;;;;;;5.53;2.00;;;;;;;25.51;53.38;101469.78;4978816;28;20061;-80
2022/08/26 02:34:24;;;;;;;4.95;1.50;;;;;;;25.58;53.12;101486.03;4975904;28;20122;-77
2022/08/26 02:36:50;;;;;;;4.80;1.92;;;;;;;25.61;53.24;101487.53;4976427;28;20515;-76
2022/08/26 02:39:16;;;;;;;4.25;1.63;;;;;;;25.58;53.03;101485.19;4974222;28;20031;-78
2022/08/26 02:41:43;;;;;;;5.63;1.90;;;;;;;25.55;53.48;101486.34;4977348;28;20471;-79
2022/08/26 02:44:08;;;;;;;5.03;1.83;;;;;;;25.46;53.28;101466.78;4993395;28;20847;-77
2022/08/26 02:46:34;;;;;;;4.10;1.80;;;;;;;25.53;52.97;101489.19;4972698;28;20041;-79
2022/08/26 02:49:00;;;;;;;3.63;1.67;;;;;;;25.58;53.00;101485.19;4975303;28;20034;-75
2022/08/26 02:51:26;;;;;;;6.03;2.10;;;;;;;25.52;53.04;101474.16;4972765;28;20117;-76
2022/08/26 02:53:51;;;;;;;4.38;1.83;;;;;;;25.56;53.31;101477.31;4975610;28;20099;-76
2022/08/26 02:56:16;;;;;;;5.00;1.70;;;;;;;25.53;52.98;101481.16;4975485;28;20061;-78
2022/08/26 02:58:41;;;;;;;4.45;1.60;;;;;;;25.55;52.98;101481.00;4973734;28;20124;-77
2022/08/26 03:01:07;;;;;;;4.68;1.90;;;;;;;25.56;53.07;101488.00;4978197;28;20043;-76
2022/08/26 03:03:32;;;;;;;4.90;2.03;;;;;;;25.49;53.38;101479.81;4975524;28;20046;-77
2022/08/26 03:05:58;;;;;;;4.53;1.40;;;;;;;25.55;53.23;101486.34;4975880;28;20046;-78
2022/08/26 03:08:23;;;;;;;5.05;1.63;;;;;;;25.50;53.25;101478.81;4972783;28;20129;-78
2022/08/26 03:10:49;;;;;;;4.85;2.00;;;;;;;25.46;53.09;101473.94;4975224;28;20829;-79
2022/08/26 03:13:15;;;;;;;4.22;1.77;;;;;;;25.48;53.01;101478.13;4976667;28;20382;-76
2022/08/26 03:15:40;;;;;;;4.50;1.85;;;;;;;25.48;53.16;101480.78;4974975;28;20042;-76
2022/08/26 03:18:06;;;;;;;4.85;1.90;;;;;;;25.50;53.37;101478.81;4974168;28;20030;-76
2022/08/26 03:20:32;;;;;;;3.95;1.75;;;;;;;25.50;53.34;101480.63;4974203;28;20923;-76
2022/08/26 03:23:00;;;;;;;3.88;1.80;;;;;;;25.47;53.61;101476.47;4977551;28;20049;-75
2022/08/26 03:25:25;;;;;;;3.90;1.80;;;;;;;25.47;53.40;101478.31;4973897;28;20034;-75
2022/08/26 03:27:52;;;;;;;4.22;1.80;;;;;;;25.48;53.37;101480.78;4976261;28;20490;-76
2022/08/26 03:33:03;;;;;;;4.80;1.80;;;;;;;25.47;53.45;101486.31;4976398;28;20034;-78
2022/08/26 03:35:30;;;;;;;4.30;1.80;;;;;;;25.46;53.52;101481.97;4977044;28;20034;-75
2022/08/26 03:37:55;;;;;;;3.15;1.67;;;;;;;25.46;53.25;101489.97;4975237;28;20034;-79
2022/08/26 03:40:21;;;;;;;5.85;1.73;;;;;;;25.44;53.11;101482.13;4976276;28;20113;-77
2022/08/26 03:42:47;;;;;;;3.97;1.60;;;;;;;25.49;53.29;101484.31;4977837;28;20038;-77
2022/08/26 03:45:14;;;;;;;4.57;1.70;;;;;;;25.46;53.07;101482.78;4979916;28;20034;-77
2022/08/26 03:47:40;;;;;;;4.78;1.75;;;;;;;25.47;53.41;101489.81;4978457;28;20031;-77
2022/08/26 03:50:09;;;;;;;4.45;1.90;;;;;;;25.47;53.53;101487.13;4980575;28;20478;-77
2022/08/26 03:52:34;;;;;;;6.15;1.73;;;;;;;25.49;53.36;101490.47;4981165;28;20026;-77
2022/08/26 03:55:00;;;;;;;6.65;2.00;;;;;;;25.46;53.26;101488.13;4981248;28;20141;-79
2022/08/26 03:57:25;;;;;;;4.47;1.60;;;;;;;25.48;53.41;101490.63;4973572;28;20030;-79
2022/08/26 03:59:50;;;;;;;5.53;1.60;;;;;;;25.48;53.21;101493.28;4973944;28;20031;-77
2022/08/26 04:02:16;;;;;;;5.55;1.70;;;;;;;25.45;52.96;101493.63;4973473;28;20042;-76
2022/08/26 04:04:41;;;;;;;5.78;1.92;;;;;;;25.45;53.05;101482.94;4977195;28;20038;-77
2022/08/26 04:07:07;;;;;;;4.35;1.73;;;;;;;25.47;53.08;101496.97;4974408;28;20142;-76
2022/08/26 04:09:32;;;;;;;5.25;2.10;;;;;;;25.48;53.12;101498.63;4975682;28;20027;-75
2022/08/26 04:11:57;;;;;;;4.63;1.80;;;;;;;25.46;53.07;101493.47;4975065;28;20038;-76
2022/08/26 04:14:25;;;;;;;4.00;1.43;;;;;;;25.44;53.11;101497.28;4974436;28;20383;-78
2022/08/26 04:16:52;;;;;;;4.63;1.58;;;;;;;25.44;53.17;101487.44;4973475;28;20292;-77
2022/08/26 04:19:19;;;;;;;4.53;1.40;;;;;;;25.38;53.20;101480.06;4975286;28;20037;-76
2022/08/26 04:21:46;;;;;;;4.18;1.55;;;;;;;25.41;53.40;101484.25;4975810;28;20042;-77
2022/08/26 04:24:14;;;;;;;4.35;1.58;;;;;;;25.42;53.23;101486.78;4974937;28;20450;-76
2022/08/26 04:26:40;;;;;;;4.45;1.67;;;;;;;25.43;53.18;101491.09;4974106;28;20046;-75
2022/08/26 04:29:10;;;;;;;5.50;1.73;;;;;;;25.40;52.98;101480.75;4972619;28;20027;-76
2022/08/26 04:31:36;;;;;;;4.57;1.70;;;;;;;25.40;53.05;101479.91;4969874;28;20038;-78
2022/08/26 04:34:02;;;;;;;4.40;1.50;;;;;;;25.40;52.91;101483.41;4970614;28;20018;-79
2022/08/26 04:36:28;;;;;;;3.75;1.38;;;;;;;25.43;53.11;101483.09;4973497;28;20084;-77
2022/08/26 04:38:53;;;;;;;4.72;1.50;;;;;;;25.42;53.06;101481.44;4953461;28;20030;-80
2022/08/26 04:41:19;;;;;;;4.13;1.48;;;;;;;25.45;53.11;101496.28;4975231;28;20434;-77
2022/08/26 04:43:46;;;;;;;5.63;1.80;;;;;;;25.42;53.16;101491.25;4976833;28;20038;-76
2022/08/26 04:46:15;;;;;;;5.07;1.65;;;;;;;25.43;53.37;101498.28;4972406;28;20037;-79
2022/08/26 04:48:41;;;;;;;3.75;1.70;;;;;;;25.33;53.11;101485.06;4974007;28;20475;-77
2022/08/26 04:51:06;;;;;;;3.97;1.35;;;;;;;25.34;53.21;101484.03;4977548;28;20046;-77
2022/08/26 04:53:32;;;;;;;4.40;1.45;;;;;;;25.43;52.97;101490.28;4973703;28;20046;-80
2022/08/26 04:55:57;;;;;;;3.42;1.45;;;;;;;25.40;53.19;101494.09;4972454;28;20027;-77
2022/08/26 04:58:24;;;;;;;5.15;1.35;;;;;;;25.40;53.17;101494.09;4973430;28;20527;-78
2022/08/26 05:00:52;;;;;;;5.07;1.42;;;;;;;25.42;53.24;101496.59;4975448;28;20030;-78
2022/08/26 05:03:18;;;;;;;5.10;1.40;;;;;;;25.41;53.06;101493.09;4977929;28;20474;-78
2022/08/26 05:05:45;;;;;;;4.40;1.73;;;;;;;25.42;53.06;101493.94;4970304;28;20085;-78
2022/08/26 05:08:13;;;;;;;5.65;1.77;;;;;;;25.29;53.40;101489.00;4953396;28;20471;-72
2022/08/26 05:10:44;;;;;;;4.88;1.50;;;;;;;25.08;53.90;101503.50;4968238;28;20026;-73
2022/08/26 05:13:11;;;;;;;6.10;1.40;;;;;;;24.73;54.99;101499.06;4970909;28;20114;-73
2022/08/26 05:15:37;;;;;;;5.93;1.42;;;;;;;24.45;56.00;101504.44;4973009;28;20730;-75
2022/08/26 05:18:04;;;;;;;5.65;2.03;;;;;;;24.16;56.90;101512.59;4969606;28;20534;-74
2022/08/26 05:20:31;;;;;;;5.85;1.70;;;;;;;23.86;57.60;101493.25;4974961;28;20383;-70
2022/08/26 05:23:00;;;;;;;4.43;1.33;;;;;;;23.72;58.54;101502.53;4981986;28;20062;-70
2022/08/26 05:25:27;;;;;;;4.65;1.50;;;;;;;23.49;59.02;101489.56;4979946;28;20034;-70
2022/08/26 05:27:55;;;;;;;5.68;1.70;;;;;;;23.35;59.68;101492.69;4976931;28;20503;-71
2022/08/26 05:30:21;;;;;;;5.13;1.50;;;;;;;23.26;60.18;101496.22;4974763;28;20459;-72
2022/08/26 05:32:48;;;;;;;5.13;1.50;;;;;;;23.14;60.26;101492.88;4967912;28;20038;-73
2022/08/26 05:35:13;;;;;;;6.32;1.42;;;;;;;23.14;60.45;101501.69;4972928;28;20605;-71
2022/08/26 05:37:38;;;;;;;5.07;1.48;;;;;;;23.08;61.01;101504.06;4980915;28;20870;-72
2022/08/26 05:40:04;;;;;;;6.40;1.43;;;;;;;22.98;60.83;101507.53;4985544;28;20042;-71
2022/08/26 05:42:30;;;;;;;5.95;2.40;;;;;;;22.97;61.69;101510.34;4980325;28;20927;-72
2022/08/26 05:44:55;;;;;;;9.43;2.00;;;;;;;22.91;61.70;101517.06;4969540;28;20089;-71
2022/08/26 05:47:20;;;;;;;5.20;1.63;;;;;;;22.86;62.15;101516.66;4988106;28;20038;-72
2022/08/26 05:49:46;;;;;;;7.20;1.70;;;;;;;22.80;61.90;101514.56;4976683;28;20030;-73
2022/08/26 05:52:11;;;;;;;6.93;2.45;;;;;;;22.78;62.05;101513.84;4977234;28;20431;-73
2022/08/26 05:54:38;;;;;;;7.20;1.90;;;;;;;22.75;62.24;101530.91;4977133;28;20231;-72
2022/08/26 05:57:03;;;;;;;4.03;1.40;;;;;;;22.74;62.19;101528.41;4975128;28;20064;-74
2022/08/26 05:59:29;;;;;;;5.00;1.50;;;;;;;22.73;62.54;101534.66;4977524;28;20172;-73
2022/08/26 06:01:54;;;;;;;4.65;1.13;;;;;;;22.70;62.55;101537.59;4977303;28;20437;-73
2022/08/26 06:04:19;;;;;;;4.35;1.20;;;;;;;22.62;62.63;101535.63;4977792;28;20023;-74
2022/08/26 06:06:45;;;;;;;6.35;1.30;;;;;;;22.60;63.01;101541.09;4976228;28;20057;-74
2022/08/26 06:09:10;;;;;;;5.22;1.63;;;;;;;22.57;62.66;101543.19;4980175;28;20374;-72
2022/08/26 06:11:36;;;;;;;5.43;1.30;;;;;;;22.57;62.42;101548.50;4976278;28;20022;-74
2022/08/26 06:14:04;;;;;;;5.55;1.33;;;;;;;22.54;62.62;101546.97;4976312;28;20065;-73
2022/08/26 06:16:30;;;;;;;6.20;1.42;;;;;;;22.50;63.07;101548.22;4982701;28;20474;-73
2022/08/26 06:18:56;;;;;;;6.35;1.40;;;;;;;22.52;62.50;101540.94;4976916;28;20146;-75
2022/08/26 06:21:26;;;;;;;6.50;1.52;;;;;;;22.50;63.06;101558.00;4973504;28;20117;-78
2022/08/26 06:26:39;;;;;;;5.35;1.33;;;;;;;22.34;63.29;101545.25;4976205;28;20061;-81
2022/08/26 06:29:06;;;;;;;7.32;1.30;;;;;;;22.41;63.50;101557.00;4981071;28;20046;-72
2022/08/26 06:31:33;;;;;;;4.10;1.02;;;;;;;22.41;63.50;101554.34;4980058;28;20550;-73
2022/08/26 06:33:59;;;;;;;5.85;1.30;;;;;;;22.46;63.24;101557.41;4979376;28;20471;-74
2022/08/26 06:36:26;;;;;;;4.07;0.98;;;;;;;22.47;62.94;101559.09;4981020;28;20034;-73
2022/08/26 06:38:53;;;;;;;5.28;1.25;;;;;;;22.46;62.98;101563.59;4983224;28;20117;-72
2022/08/26 06:41:21;;;;;;;5.85;1.48;;;;;;;22.49;63.40;101567.78;4982566;28;20113;-71
2022/08/26 06:43:48;;;;;;;4.47;1.05;;;;;;;22.48;63.03;101557.28;4978496;28;20018;-70
2022/08/26 06:46:16;;;;;;;4.05;1.25;;;;;;;22.46;63.33;101560.94;4986646;28;20117;-71
2022/08/26 06:48:42;;;;;;;5.43;1.27;;;;;;;22.44;63.20;101565.50;4977178;28;20048;-75
2022/08/26 06:51:14;;;;;;;4.97;1.15;;;;;;;22.44;62.98;101576.13;4970082;28;20062;-72
2022/08/26 06:53:41;;;;;;;5.38;1.00;;;;;;;22.41;63.16;101567.59;4964558;28;20041;-72
2022/08/26 06:56:09;;;;;;;5.60;1.20;;;;;;;22.45;63.12;101579.66;4968453;28;20079;-76
2022/08/26 06:58:36;;;;;;;5.38;1.30;;;;;;;22.50;62.82;101574.78;4976837;28;20069;-77
2022/08/26 07:01:02;;;;;;;5.03;1.30;;;;;;;22.51;62.66;101573.81;4966554;28;20478;-76
2022/08/26 07:03:27;;;;;;;6.25;1.20;;;;;;;22.52;62.83;101567.50;4970740;28;20251;-79
2022/08/26 07:05:52;;;;;;;3.17;1.20;;;;;;;22.58;62.37;101574.09;4964343;28;20070;-77
2022/08/26 07:08:18;;;;;;;3.33;1.15;;;;;;;22.64;61.95;101578.88;4967600;28;20277;-77
2022/08/26 07:10:43;;;;;;;5.68;1.08;;;;;;;22.62;61.94;101567.50;4968959;28;20089;-76
2022/08/26 07:13:09;;;;;;;5.68;1.00;;;;;;;22.65;61.87;101575.22;4976459;28;20096;-79
2022/08/26 07:15:40;;;;;;;5.72;1.20;;;;;;;22.70;62.10;101573.00;4973057;28;20141;-76
2022/08/26 07:18:07;;;;;;;3.72;1.15;;;;;;;22.64;61.95;101570.91;4973392;28;20046;-78
2022/08/26 07:20:35;;;;;;;4.38;1.10;;;;;;;22.67;62.25;101578.59;4970817;28;20034;-79
2022/08/26 07:23:01;;;;;;;4.57;1.00;;;;;;;22.68;61.78;101568.78;4974080;28;20169;-79
2022/08/26 07:25:26;;;;;;;3.77;1.30;;;;;;;22.67;61.80;101581.25;4975575;28;20110;-79
2022/08/26 07:27:51;;;;;;;3.87;1.50;;;;;;;22.63;61.50;101567.38;4972679;28;20288;-77
2022/08/26 07:30:17;;;;;;;3.67;1.05;;;;;;;22.66;61.85;101576.91;4965016;28;20357;-78
2022/08/26 07:32:42;;;;;;;5.07;1.10;;;;;;;22.63;61.49;101575.34;4973559;28;20038;-80
2022/08/26 07:35:08;;;;;;;2.10;0.95;;;;;;;22.72;61.46;101586.97;4975970;28;20516;-78
2022/08/26 07:37:33;;;;;;;4.60;1.30;;;;;;;22.73;61.21;101578.03;4969023;28;20038;-78
2022/08/26 07:39:58;;;;;;;5.55;1.27;;;;;;;22.75;61.23;101585.88;4974821;28;20041;-75
2022/08/26 07:42:24;;;;;;;3.90;1.13;;;;;;;22.74;61.68;101585.03;4976022;28;20049;-78
2022/08/26 07:44:49;;;;;;;4.82;0.95;;;;;;;22.78;61.32;101590.91;4970578;28;20037;-77
2022/08/26 07:47:15;;;;;;;6.50;1.50;;;;;;;22.72;61.65;101581.66;4971290;28;20092;-76
2022/08/26 07:49:40;;;;;;;7.57;1.67;;;;;;;22.86;60.76;101596.38;4978843;28;20039;-73
2022/08/26 07:52:07;;;;;;;3.75;1.35;;;;;;;22.88;60.88;101590.94;4967723;28;20402;-73
2022/08/26 07:54:32;;;;;;;5.10;1.20;;;;;;;22.91;60.61;101593.31;4975504;28;20038;-77
2022/08/26 07:57:00;;;;;;;4.18;1.58;;;;;;;23.04;60.10;101598.34;4976114;28;20114;-77
2022/08/26 07:59:26;;;;;;;4.18;1.00;;;;;;;23.12;59.95;101598.53;4974067;28;20475;-78
2022/08/26 08:01:51;;;;;;;5.03;1.20;;;;;;;23.18;60.18;101598.81;4973032;28;20062;-77
2022/08/26 08:04:18;;;;;;;5.03;1.20;;;;;;;23.28;60.28;101604.13;4972395;28;20092;-74
2022/08/26 08:06:44;;;;;;;4.68;1.20;;;;;;;23.35;59.58;101607.91;4978267;28;20043;-74
2022/08/26 08:09:11;;;;;;;4.90;1.85;;;;;;;23.34;59.11;101608.88;4970722;28;20054;-78
2022/08/26 08:11:36;;;;;;;3.97;1.27;;;;;;;23.34;58.63;101608.88;4970447;28;20455;-78
2022/08/26 08:14:03;;;;;;;4.60;1.52;;;;;;;23.36;58.65;101611.41;4963389;28;20038;-76
2022/08/26 08:16:28;;;;;;;3.80;1.27;;;;;;;23.35;58.87;101607.91;4976209;28;20050;-76
2022/08/26 08:18:55;;;;;;;6.07;1.40;;;;;;;23.39;58.36;101611.13;4968706;28;20168;-76
2022/08/26 08:21:22;;;;;;;8.05;1.30;;;;;;;23.39;58.32;101607.63;4975272;28;20096;-77
2022/08/26 08:23:48;;;;;;;5.43;1.20;;;;;;;23.39;57.91;101607.63;4974887;28;20045;-75
2022/08/26 08:26:14;;;;;;;4.25;1.00;;;;;;;23.41;57.75;101608.31;4970822;28;20035;-75
2022/08/26 08:28:39;;;;;;;3.75;1.00;;;;;;;23.43;57.74;101609.88;4970333;28;20412;-76
2022/08/26 08:31:05;;;;;;;3.95;1.05;;;;;;;23.50;58.02;101597.66;4965516;28;20029;-77
2022/08/26 08:33:33;;;;;;;5.35;1.30;;;;;;;23.58;57.49;101609.44;4967733;28;20034;-72
2022/08/26 08:35:59;;;;;;;4.85;1.40;;;;;;;23.54;57.24;101595.56;4970804;28;20030;-79
2022/08/26 08:38:25;;;;;;;4.43;0.90;;;;;;;23.60;57.12;101600.31;4976375;28;20098;-80
2022/08/26 08:40:50;;;;;;;2.90;1.00;;;;;;;23.60;57.19;101600.31;4966401;28;20073;-78
2022/08/26 08:43:40;;;;;;;5.23;1.57;;;;;;;23.58;57.20;101610.25;4972973;28;20439;-74
2022/08/26 08:46:12;;;;;;;4.20;0.95;;;;;;;23.60;56.97;101607.44;4966270;28;20284;-77
2022/08/26 08:48:42;;;;;;;4.95;1.30;;;;;;;23.69;56.47;101606.59;4972929;28;20049;-75
2022/08/26 08:51:38;;;;;;;5.22;1.10;;;;;;;23.75;55.42;101600.72;4978526;28;20042;-77
2022/08/26 08:54:05;;;;;;;3.53;0.95;;;;;;;23.80;56.29;101610.91;4966597;28;20030;-74
2022/08/26 08:56:33;;;;;;;6.32;1.20;;;;;;;23.78;56.12;101616.38;4967880;28;20058;-76
2022/08/26 08:59:15;;;;;;;4.65;1.45;;;;;;;23.75;56.46;101608.69;4972023;28;20065;-77
2022/08/26 09:01:51;;;;;;;4.13;1.00;;;;;;;23.74;56.39;101612.31;4970847;28;20045;-75
2022/08/26 09:04:58;;;;;;;4.50;1.20;;;;;;;23.70;56.73;101619.75;4972124;28;20061;-77
2022/08/26 09:07:30;;;;;;;6.88;1.30;;;;;;;23.65;56.21;101616.66;4969941;28;20138;-75
2022/08/26 09:10:19;;;;;;;5.72;1.40;;;;;;;23.62;56.47;101611.63;4974499;28;20037;-74
2022/08/26 09:12:46;;;;;;;3.88;0.98;;;;;;;23.58;56.42;101612.09;4981190;28;20113;-72
2022/08/26 09:15:33;;;;;;;4.80;1.00;;;;;;;23.58;56.99;101617.41;4980040;28;20080;-73
2022/08/26 09:18:09;;;;;;;4.40;1.20;;;;;;;23.59;56.79;101608.44;4968273;28;20089;-73
2022/08/26 09:20:47;;;;;;;6.22;1.10;;;;;;;23.62;56.41;101611.63;4981763;28;20072;-77
2022/08/26 09:23:13;;;;;;;5.65;1.00;;;;;;;23.62;56.13;101613.47;4980040;28;20030;-79
2022/08/26 09:26:25;;;;;;;6.00;1.13;;;;;;;23.65;57.11;101615.84;4972366;28;20553;-74
2022/08/26 09:29:02;;;;;;;3.55;1.00;;;;;;;23.69;56.99;101620.75;4963171;28;20058;-71
2022/08/26 09:31:33;;;;;;;4.65;1.00;;;;;;;23.72;56.92;101625.78;4973646;28;20417;-72
2022/08/26 09:34:07;;;;;;;5.35;1.30;;;;;;;23.71;56.22;101616.09;4976489;28;20104;-71
2022/08/26 09:36:39;;;;;;;3.90;1.00;;;;;;;23.75;56.54;101627.31;4967879;28;20023;-71
2022/08/26 09:39:23;;;;;;;5.90;1.35;;;;;;;23.75;55.81;101631.78;4981209;28;20038;-76
2022/08/26 09:42:03;;;;;;;;;;;;;;;23.69;56.17;101623.41;4978638;28;20033;-70
2022/08/26 09:44:30;;;;;;;6.25;1.10;;;;;;;23.68;56.21;101624.38;4975729;28;20009;-73
2022/08/26 09:47:02;;;;;;;3.92;1.30;;;;;;;23.72;57.26;101633.75;4966355;28;20173;-72
2022/08/26 09:49:38;;;;;;;7.60;1.08;;;;;;;23.69;56.27;101619.91;4964003;28;20950;-72
2022/08/26 09:52:12;;;;;;;3.95;1.05;;;;;;;23.73;56.74;101631.94;4975968;28;20023;-74
2022/08/26 09:54:38;;;;;;;6.43;1.13;;;;;;;23.69;55.84;101625.22;4968174;28;20229;-71
2022/08/26 09:57:14;;;;;;;5.35;1.27;;;;;;;23.67;56.15;101627.16;4964602;28;20038;-69
2022/08/26 09:59:40;;;;;;;6.10;1.25;;;;;;;23.66;56.64;101634.31;4970906;28;20178;-75
2022/08/26 10:02:22;;;;;;;5.85;1.45;;;;;;;23.67;56.17;101641.34;4962196;28;20133;-71
2022/08/26 10:04:54;;;;;;;7.15;1.35;;;;;;;23.65;56.26;101640.63;4968175;28;20039;-72
2022/08/26 10:07:46;;;;;;;5.13;1.20;;;;;;;23.65;56.37;101637.97;4973493;28;20057;-72
2022/08/26 10:10:16;;;;;;;7.18;1.00;;;;;;;23.64;56.40;101644.28;4969952;28;20443;-70
2022/08/26 10:12:50;;;;;;;5.43;1.20;;;;;;;23.62;55.23;101637.41;4962501;28;20049;-67
2022/08/26 10:15:17;;;;;;;5.45;1.10;;;;;;;23.58;56.06;101636.03;4980823;28;20432;-69
2022/08/26 10:18:02;;;;;;;4.32;1.02;;;;;;;23.50;56.11;101636.72;4970006;28;20042;-75
2022/08/26 10:20:34;;;;;;;5.80;1.10;;;;;;;23.47;55.78;101631.69;4975090;28;20035;-75
2022/08/26 10:23:11;;;;;;;4.47;1.15;;;;;;;23.49;56.36;101635.88;4965424;28;20478;-74
2022/08/26 10:25:46;;;;;;;3.45;0.88;;;;;;;23.53;56.21;101631.13;4965895;28;20038;-69
2022/08/26 10:28:31;;;;;;;5.10;1.35;;;;;;;23.57;56.34;101631.69;4979479;28;20050;-73
2022/08/26 10:31:11;;;;;;;3.97;1.20;;;;;;;23.59;56.21;101627.06;4984481;28;20076;-72
2022/08/26 10:33:38;;;;;;;4.65;1.10;;;;;;;23.64;55.92;101630.13;4968802;28;20050;-72
2022/08/26 10:36:47;;;;;;;4.57;1.15;;;;;;;23.66;55.98;101641.47;4973796;28;20030;-70
2022/08/26 10:38:57;;;;;;;4.82;1.20;;;;;;;23.65;55.26;101621.16;4984170;28;20046;-71
2022/08/26 10:41:25;;;;;;;3.38;1.15;;;;;;;23.65;55.60;101635.28;4977773;28;20110;-70
2022/08/26 10:43:56;;;;;;;5.00;1.20;;;;;;;23.66;55.99;101621.03;4971687;28;20034;-70
2022/08/26 10:46:27;;;;;;;3.00;0.85;;;;;;;23.66;55.81;101620.19;4984352;28;21022;-70
2022/08/26 10:49:05;;;;;;;6.05;1.40;;;;;;;23.62;55.84;101619.63;4978936;28;20041;-70
2022/08/26 10:51:37;;;;;;;5.80;1.20;;;;;;;23.60;55.69;101610.94;4977740;28;20255;-71
2022/08/26 10:54:15;;;;;;;6.05;1.15;;;;;;;23.69;55.77;101631.38;4984454;28;20027;-70
2022/08/26 10:56:56;;;;;;;3.72;0.95;;;;;;;23.67;55.42;101630.69;4972586;28;20066;-69
2022/08/26 10:59:37;;;;;;;5.18;1.20;;;;;;;23.67;55.46;101636.00;4976681;28;20038;-69
2022/08/26 11:02:16;;;;;;;4.90;1.00;;;;;;;23.59;54.59;101614.59;4969497;28;20071;-73
2022/08/26 11:04:59;;;;;;;4.32;1.00;;;;;;;23.59;54.99;101632.38;4971123;28;20356;-73
2022/08/26 11:07:28;;;;;;;5.82;1.00;;;;;;;23.61;55.35;101638.41;4982020;28;20030;-73
2022/08/26 11:09:54;;;;;;;4.65;1.00;;;;;;;23.56;55.19;101630.84;4966444;28;20022;-72
2022/08/26 11:12:35;;;;;;;5.25;1.20;;;;;;;23.61;55.28;101635.75;4968852;28;20585;-72
2022/08/26 11:15:02;;;;;;;4.18;0.77;;;;;;;23.64;54.89;101638.09;4980071;28;20042;-74
2022/08/26 11:17:54;;;;;;;6.28;1.13;;;;;;;23.69;54.75;101630.56;4979929;28;20114;-75
2022/08/26 11:20:28;;;;;;;7.10;1.40;;;;;;;23.71;53.98;101628.56;4983542;28;20097;-73
2022/08/26 11:23:15;;;;;;;4.80;0.98;;;;;;;23.72;54.25;101627.59;4966398;28;20030;-73
2022/08/26 11:25:55;;;;;;;3.92;0.90;;;;;;;23.76;54.46;101633.47;4963728;28;20467;-75
2022/08/26 11:28:43;;;;;;;3.35;0.95;;;;;;;23.74;54.76;101630.97;4968556;28;20053;-72
2022/08/26 11:31:25;;;;;;;6.05;1.10;;;;;;;23.73;54.43;101623.94;4963596;28;20061;-73
2022/08/26 11:33:55;;;;;;;3.90;1.00;;;;;;;23.72;54.42;101616.97;4963674;28;20043;-72
2022/08/26 11:36:36;;;;;;;4.70;1.13;;;;;;;23.71;55.17;101625.91;4970305;28;20430;-74
2022/08/26 11:39:27;;;;;;;4.53;1.10;;;;;;;23.64;54.49;101630.13;4976692;28;20031;-73
2022/08/26 11:42:00;;;;;;;3.58;0.90;;;;;;;23.61;54.58;101638.41;4972758;28;20034;-71